createdAt,value
2019-02-14T00:01:14.197Z,70.90
2019-02-14T00:03:41.783Z,70.60
2019-02-14T00:06:09.252Z,72.30
2019-02-14T00:08:36.734Z,73.00
2019-02-14T00:11:04.525Z,73.60
2019-02-14T00:13:31.939Z,74.60
2019-02-14T00:16:02.401Z,77.70
2019-02-14T00:18:29.800Z,79.60
2019-02-14T00:20:57.321Z,78.30
2019-02-14T00:23:25.398Z,73.80
2019-02-14T00:25:52.815Z,73.40
2019-02-14T00:28:20.553Z,72.60
2019-02-14T00:30:47.969Z,73.00
2019-02-14T00:33:15.417Z,77.20
2019-02-14T00:35:42.994Z,74.40
2019-02-14T00:38:11.016Z,73.10
2019-02-14T00:40:38.844Z,74.20
2019-02-14T00:43:06.644Z,72.00
2019-02-14T00:45:34.788Z,72.30
2019-02-14T00:48:02.393Z,73.60
2019-02-14T00:50:29.899Z,74.80
2019-02-14T00:52:57.281Z,76.70
2019-02-14T00:55:25.094Z,88.30
2019-02-14T00:57:52.474Z,77.70
2019-02-14T01:00:19.964Z,78.60
2019-02-14T01:02:47.737Z,79.00
2019-02-14T01:05:16.488Z,79.40
2019-02-14T01:07:48.176Z,81.10
2019-02-14T01:10:15.699Z,80.70
2019-02-14T01:12:43.230Z,84.90
2019-02-14T01:15:10.803Z,86.40
2019-02-14T01:17:38.592Z,83.70
2019-02-14T01:20:06.232Z,85.80
2019-02-14T01:22:34.714Z,86.10
2019-02-14T01:25:02.133Z,86.10
2019-02-14T01:27:29.664Z,85.40
2019-02-14T01:29:57.463Z,84.20
2019-02-14T01:32:25.425Z,86.30
2019-02-14T01:34:53.550Z,84.90
2019-02-14T01:37:21.329Z,85.40
2019-02-14T01:39:48.875Z,85.60
2019-02-14T01:42:16.401Z,88.80
2019-02-14T01:44:44.749Z,90.20
2019-02-14T01:47:12.171Z,91.10
2019-02-14T01:49:39.594Z,92.40
2019-02-14T01:52:07.110Z,93.10
2019-02-14T01:54:34.495Z,94.00
2019-02-14T01:57:02.036Z,94.20
2019-02-14T01:59:29.629Z,95.20
2019-02-14T02:01:57.489Z,95.30
2019-02-14T02:04:25.112Z,95.60
2019-02-14T02:06:52.656Z,97.00
2019-02-14T02:09:20.457Z,97.30
2019-02-14T02:11:48.179Z,97.90
2019-02-14T02:14:16.284Z,98.00
2019-02-14T02:16:43.845Z,98.30
2019-02-14T02:19:11.656Z,98.80
2019-02-14T02:21:39.688Z,99.20
2019-02-14T02:24:07.301Z,98.90
2019-02-14T02:26:35.357Z,99.30
2019-02-14T02:29:03.442Z,99.30
2019-02-14T02:31:31.189Z,99.80
2019-02-14T02:33:58.756Z,99.20
2019-02-14T02:36:26.544Z,99.90
2019-02-14T02:38:54.289Z,99.90
2019-02-14T02:41:22.333Z,99.90
2019-02-14T02:43:50.085Z,99.60
2019-02-14T02:46:17.844Z,99.00
2019-02-14T02:48:45.337Z,98.40
2019-02-14T02:51:12.740Z,98.00
2019-02-14T02:53:40.335Z,99.20
2019-02-14T02:56:07.857Z,99.70
2019-02-14T02:58:35.616Z,99.10
2019-02-14T03:01:03.290Z,99.90
2019-02-14T03:03:31.001Z,99.90
2019-02-14T03:05:58.861Z,99.60
2019-02-14T03:08:26.644Z,99.50
2019-02-14T03:16:17.622Z,98.50
2019-02-14T03:18:45.111Z,99.40
2019-02-14T03:21:12.625Z,99.90
2019-02-14T03:23:39.977Z,99.90
2019-02-14T03:26:07.656Z,99.90
2019-02-14T03:28:35.330Z,99.90
2019-02-14T03:31:02.745Z,99.70
2019-02-14T03:33:30.197Z,99.90
2019-02-14T03:35:57.884Z,97.80
2019-02-14T03:38:25.346Z,98.70
2019-02-14T03:40:53.268Z,98.20
2019-02-14T03:43:20.736Z,98.60
2019-02-14T03:45:48.247Z,94.00
2019-02-14T03:48:15.918Z,94.40
2019-02-14T03:50:43.334Z,95.60
2019-02-14T03:53:10.996Z,96.60
2019-02-14T03:55:38.441Z,97.10
2019-02-14T03:58:05.895Z,98.00
2019-02-14T04:00:33.683Z,99.70
2019-02-14T04:03:01.049Z,99.20
2019-02-14T04:05:28.580Z,99.90
2019-02-14T04:07:55.927Z,99.20
2019-02-14T04:10:23.463Z,99.90
2019-02-14T04:12:51.077Z,99.90
2019-02-14T04:15:18.462Z,99.90
2019-02-14T04:17:46.263Z,99.90
2019-02-14T04:20:13.765Z,99.90
2019-02-14T04:22:41.156Z,99.90
2019-02-14T04:25:08.688Z,99.90
2019-02-14T04:27:36.180Z,99.90
2019-02-14T04:30:04.523Z,99.90
2019-02-14T04:32:32.743Z,99.90
2019-02-14T04:35:00.224Z,99.90
2019-02-14T04:37:27.729Z,99.90
2019-02-14T04:39:55.189Z,99.90
2019-02-14T04:42:22.702Z,99.90
2019-02-14T04:44:50.083Z,99.90
2019-02-14T04:47:17.619Z,99.90
2019-02-14T04:49:45.241Z,99.90
2019-02-14T04:52:12.892Z,99.90
2019-02-14T04:54:40.268Z,99.90
2019-02-14T04:57:07.774Z,99.50
2019-02-14T04:59:35.263Z,99.90
2019-02-14T05:02:02.761Z,98.50
2019-02-14T05:04:30.235Z,98.70
2019-02-14T05:06:57.731Z,99.60
2019-02-14T05:09:25.210Z,99.90
2019-02-14T05:11:52.837Z,99.90
2019-02-14T05:14:20.503Z,99.90
2019-02-14T05:16:48.043Z,99.80
2019-02-14T05:19:15.583Z,98.70
2019-02-14T05:21:43.856Z,99.90
2019-02-14T05:24:11.526Z,99.70
2019-02-14T05:26:39.159Z,99.90
2019-02-14T05:29:07.079Z,99.90
2019-02-14T05:31:34.649Z,99.90
2019-02-14T05:34:02.295Z,99.90
2019-02-14T05:36:29.814Z,99.90
2019-02-14T05:38:57.301Z,99.90
2019-02-14T05:41:24.891Z,99.90
2019-02-14T05:43:52.463Z,99.90
2019-02-14T05:46:20.108Z,99.90
2019-02-14T05:48:47.717Z,99.90
2019-02-14T05:51:15.511Z,99.90
2019-02-14T05:53:43.148Z,99.90
2019-02-14T05:56:10.688Z,99.90
2019-02-14T05:58:38.260Z,99.90
2019-02-14T06:01:05.799Z,99.90
2019-02-14T06:03:33.398Z,99.90
2019-02-14T06:06:01.281Z,99.90
2019-02-14T06:08:28.860Z,99.90
2019-02-14T06:10:56.439Z,99.90
2019-02-14T06:13:24.429Z,99.90
2019-02-14T06:15:51.884Z,99.90
2019-02-14T06:18:19.454Z,99.90
2019-02-14T06:20:47.142Z,99.90
2019-02-14T06:23:14.759Z,99.90
2019-02-14T06:25:42.334Z,99.90
2019-02-14T06:28:09.932Z,99.90
2019-02-14T06:30:37.530Z,99.90
2019-02-14T06:33:05.224Z,99.90
2019-02-14T06:35:32.841Z,99.90
2019-02-14T06:38:00.541Z,99.90
2019-02-14T06:40:28.103Z,99.90
2019-02-14T06:42:56.429Z,99.90
2019-02-14T06:45:23.967Z,98.80
2019-02-14T06:47:51.665Z,99.90
2019-02-14T06:50:19.499Z,99.90
2019-02-14T06:52:51.221Z,99.90
2019-02-14T06:55:19.088Z,99.90
2019-02-14T06:57:46.719Z,99.90
2019-02-14T07:00:14.543Z,99.90
2019-02-14T07:02:42.303Z,99.60
2019-02-14T07:05:10.012Z,97.70
2019-02-14T07:07:37.865Z,97.40
2019-02-14T07:10:06.343Z,99.40
2019-02-14T07:12:33.925Z,99.90
2019-02-14T07:15:01.472Z,99.90
2019-02-14T07:17:29.063Z,99.80
2019-02-14T07:20:00.300Z,98.00
2019-02-14T07:22:27.818Z,98.90
2019-02-14T07:24:55.415Z,99.10
2019-02-14T07:27:23.081Z,99.30
2019-02-14T07:29:50.638Z,99.00
2019-02-14T07:32:18.607Z,99.90
2019-02-14T07:34:46.532Z,99.90
2019-02-14T07:37:14.185Z,99.90
2019-02-14T07:39:42.220Z,99.30
2019-02-14T07:42:09.836Z,97.90
2019-02-14T07:44:37.755Z,99.90
2019-02-14T07:47:05.278Z,95.50
2019-02-14T07:49:33.760Z,96.50
2019-02-14T07:52:01.384Z,94.80
2019-02-14T07:54:29.008Z,94.20
2019-02-14T07:56:56.749Z,97.30
2019-02-14T07:59:24.968Z,97.90
2019-02-14T08:01:53.056Z,99.90
2019-02-14T08:04:21.325Z,99.90
2019-02-14T08:06:49.142Z,98.60
2019-02-14T08:09:16.924Z,95.40
2019-02-14T08:11:44.719Z,95.20
2019-02-14T08:14:12.500Z,97.60
2019-02-14T08:16:40.169Z,94.10
2019-02-14T08:19:07.995Z,96.50
2019-02-14T08:21:36.179Z,93.40
2019-02-14T08:24:04.052Z,93.40
2019-02-14T08:26:34.663Z,98.80
2019-02-14T08:29:06.389Z,93.00
2019-02-14T08:31:34.861Z,92.00
2019-02-14T08:34:03.061Z,88.00
2019-02-14T08:36:30.943Z,88.00
2019-02-14T08:39:01.068Z,88.10
2019-02-14T08:41:28.958Z,90.10
2019-02-14T08:43:56.601Z,88.60
2019-02-14T08:46:24.298Z,88.10
2019-02-14T08:48:53.226Z,87.00
2019-02-14T08:51:37.310Z,83.30
2019-02-14T08:54:05.500Z,85.40
2019-02-14T08:56:33.156Z,86.40
2019-02-14T08:59:04.212Z,80.20
2019-02-14T09:01:39.717Z,80.50
2019-02-14T09:04:12.631Z,81.00
2019-02-14T09:06:54.307Z,80.10
2019-02-14T09:09:22.434Z,80.70
2019-02-14T09:11:50.128Z,79.00
2019-02-14T09:14:18.069Z,90.90
2019-02-14T09:16:45.945Z,75.10
2019-02-14T09:19:13.836Z,75.40
2019-02-14T09:21:45.906Z,76.00
2019-02-14T09:24:13.397Z,76.20
2019-02-14T09:26:41.145Z,73.30
2019-02-14T09:29:08.606Z,70.40
2019-02-14T09:31:36.036Z,69.10
2019-02-14T09:34:03.477Z,70.90
2019-02-14T09:36:31.330Z,71.20
2019-02-14T09:38:58.742Z,67.20
2019-02-14T09:41:26.136Z,64.50
2019-02-14T09:43:53.622Z,62.50
2019-02-14T09:46:24.071Z,62.70
2019-02-14T09:48:54.385Z,63.00
2019-02-14T09:51:21.858Z,63.90
2019-02-14T09:53:49.206Z,61.90
2019-02-14T09:56:16.942Z,62.60
2019-02-14T09:58:58.881Z,61.50
2019-02-14T10:01:26.376Z,60.90
2019-02-14T10:03:53.892Z,59.80
2019-02-14T10:06:21.475Z,59.70
2019-02-14T10:09:07.018Z,66.60
2019-02-14T10:11:34.732Z,63.60
2019-02-14T10:14:03.710Z,62.60
2019-02-14T10:16:31.580Z,63.00
2019-02-14T10:18:59.032Z,61.90
2019-02-14T10:21:26.433Z,62.60
2019-02-14T10:23:53.924Z,61.80
2019-02-14T10:26:21.442Z,60.00
2019-02-14T10:28:49.132Z,60.60
2019-02-14T10:31:16.513Z,58.20
2019-02-14T10:33:43.880Z,59.80
2019-02-14T10:36:11.438Z,57.70
2019-02-14T10:38:39.268Z,60.30
2019-02-14T10:41:07.002Z,55.90
2019-02-14T10:43:34.660Z,56.90
2019-02-14T10:46:02.771Z,55.40
2019-02-14T10:48:30.268Z,55.40
2019-02-14T10:50:57.763Z,56.20
2019-02-14T10:53:25.457Z,58.00
2019-02-14T10:55:52.961Z,54.60
2019-02-14T10:58:20.286Z,55.60
2019-02-14T11:00:47.647Z,56.10
2019-02-14T11:03:15.619Z,55.90
2019-02-14T11:05:43.121Z,58.80
2019-02-14T11:08:10.476Z,53.80
2019-02-14T11:10:39.965Z,56.20
2019-02-14T11:13:07.722Z,53.90
2019-02-14T11:15:35.240Z,54.90
2019-02-14T11:18:03.119Z,56.40
2019-02-14T11:20:30.885Z,52.40
2019-02-14T11:22:58.597Z,50.60
2019-02-14T11:25:28.312Z,47.90
2019-02-14T11:27:56.107Z,50.30
2019-02-14T11:30:23.574Z,47.80
2019-02-14T11:32:51.107Z,49.20
2019-02-14T11:35:18.533Z,47.10
2019-02-14T11:37:46.070Z,48.30
2019-02-14T11:40:16.815Z,45.50
2019-02-14T11:42:44.481Z,47.50
2019-02-14T11:45:13.439Z,47.10
2019-02-14T11:47:40.970Z,44.70
2019-02-14T11:50:09.177Z,45.30
2019-02-14T11:52:36.554Z,45.50
2019-02-14T11:55:04.009Z,48.00
2019-02-14T11:57:31.355Z,45.20
2019-02-14T11:59:59.013Z,43.90
2019-02-14T12:02:26.375Z,43.60
2019-02-14T12:04:54.376Z,48.60
2019-02-14T12:07:21.734Z,45.00
2019-02-14T12:09:49.158Z,45.70
2019-02-14T12:12:16.561Z,45.20
2019-02-14T12:14:44.594Z,45.40
2019-02-14T12:17:12.369Z,43.60
2019-02-14T12:19:40.101Z,47.00
2019-02-14T12:22:07.585Z,43.20
2019-02-14T12:24:35.359Z,45.60
2019-02-14T12:27:02.878Z,42.90
2019-02-14T12:29:30.271Z,44.40
2019-02-14T12:31:57.743Z,43.80
2019-02-14T12:34:25.174Z,43.20
2019-02-14T12:36:52.681Z,43.80
2019-02-14T12:39:20.084Z,43.00
2019-02-14T12:41:47.847Z,43.30
2019-02-14T12:44:15.558Z,42.90
2019-02-14T12:46:43.232Z,42.70
2019-02-14T12:49:10.657Z,42.90
2019-02-14T12:51:38.442Z,41.30
2019-02-14T12:54:05.903Z,42.10
2019-02-14T12:56:33.376Z,43.10
2019-02-14T12:59:00.864Z,43.10
2019-02-14T13:01:28.469Z,41.60
2019-02-14T13:03:55.900Z,39.90
2019-02-14T13:06:23.396Z,41.50
2019-02-14T13:08:50.893Z,40.50
2019-02-14T13:11:18.397Z,40.10
2019-02-14T13:13:49.686Z,41.60
2019-02-14T13:16:15.125Z,39.30
2019-02-14T13:18:42.827Z,40.50
2019-02-14T13:21:10.441Z,40.90
2019-02-14T13:23:38.165Z,41.70
2019-02-14T13:26:05.608Z,40.30
2019-02-14T13:28:33.469Z,39.30
2019-02-14T13:31:00.877Z,39.30
2019-02-14T13:33:28.345Z,40.10
2019-02-14T13:35:56.076Z,40.90
2019-02-14T13:38:23.988Z,40.20
2019-02-14T13:40:51.391Z,40.10
2019-02-14T13:43:18.839Z,39.10
2019-02-14T13:45:46.301Z,41.00
2019-02-14T13:48:13.694Z,40.30
2019-02-14T13:50:41.341Z,39.70
2019-02-14T13:53:09.072Z,40.00
2019-02-14T13:55:36.433Z,43.00
2019-02-14T13:58:04.238Z,41.80
2019-02-14T14:00:31.979Z,40.50
2019-02-14T14:02:59.469Z,39.10
2019-02-14T14:05:27.068Z,38.80
2019-02-14T14:07:54.765Z,39.20
2019-02-14T14:10:22.142Z,43.00
2019-02-14T14:12:49.637Z,40.40
2019-02-14T14:15:17.104Z,38.20
2019-02-14T14:17:44.584Z,38.70
2019-02-14T14:20:11.972Z,38.50
2019-02-14T14:22:39.522Z,41.70
2019-02-14T14:25:06.959Z,41.10
2019-02-14T14:27:34.351Z,40.90
2019-02-14T14:30:01.820Z,41.00
2019-02-14T14:32:29.434Z,40.90
2019-02-14T14:34:56.863Z,42.60
2019-02-14T14:37:24.358Z,39.50
2019-02-14T14:39:51.997Z,40.40
2019-02-14T14:42:42.244Z,39.20
2019-02-14T14:45:12.138Z,39.60
2019-02-14T14:47:39.893Z,41.80
2019-02-14T14:50:07.532Z,38.80
2019-02-14T14:52:34.862Z,38.60
2019-02-14T14:55:02.466Z,39.30
2019-02-14T14:57:29.849Z,39.20
2019-02-14T14:59:57.189Z,40.30
2019-02-14T15:02:24.884Z,39.80
2019-02-14T15:04:52.294Z,40.30
2019-02-14T15:07:19.894Z,40.80
2019-02-14T15:09:47.212Z,41.50
2019-02-14T15:12:14.544Z,41.00
2019-02-14T15:14:42.635Z,40.10
2019-02-14T15:17:10.087Z,40.70
2019-02-14T15:19:37.378Z,41.70
2019-02-14T15:22:05.084Z,40.50
2019-02-14T15:24:32.396Z,41.50
2019-02-14T15:27:00.027Z,41.20
2019-02-14T15:29:27.341Z,41.40
2019-02-14T15:31:54.857Z,42.00
2019-02-14T15:34:22.271Z,43.50
2019-02-14T15:36:51.796Z,44.70
2019-02-14T15:39:19.214Z,42.10
2019-02-14T15:41:46.532Z,43.30
2019-02-14T15:44:14.538Z,43.00
2019-02-14T15:46:42.134Z,44.00
2019-02-14T15:49:09.620Z,43.70
2019-02-14T15:51:37.296Z,43.40
2019-02-14T15:54:04.617Z,44.40
2019-02-14T15:56:51.479Z,45.00
2019-02-14T15:59:20.941Z,45.70
2019-02-14T16:01:48.421Z,46.30
2019-02-14T16:04:16.092Z,47.80
2019-02-14T16:06:43.461Z,49.60
2019-02-14T16:09:12.185Z,47.70
2019-02-14T16:11:40.112Z,47.10
2019-02-14T16:14:07.797Z,47.40
2019-02-14T16:16:35.374Z,47.10
2019-02-14T16:19:02.715Z,47.70
2019-02-14T16:21:31.584Z,48.50
2019-02-14T16:23:59.027Z,48.60
2019-02-14T16:26:26.803Z,49.70
2019-02-14T16:28:54.125Z,50.50
2019-02-14T16:31:21.448Z,51.40
2019-02-14T16:33:48.782Z,53.00
2019-02-14T16:36:16.191Z,52.40
2019-02-14T16:38:43.918Z,52.50
2019-02-14T16:41:11.769Z,52.50
2019-02-14T16:43:39.110Z,50.90
2019-02-14T16:46:06.431Z,51.20
2019-02-14T16:48:34.583Z,50.00
2019-02-14T16:51:02.265Z,54.20
2019-02-14T16:53:29.614Z,52.80
2019-02-14T16:56:02.075Z,54.90
2019-02-14T16:58:26.471Z,53.40
2019-02-14T17:00:53.842Z,55.00
2019-02-14T17:03:21.200Z,53.50
2019-02-14T17:05:48.567Z,56.30
2019-02-14T17:08:15.904Z,54.70
2019-02-14T17:10:43.287Z,54.00
2019-02-14T17:13:11.147Z,53.60
2019-02-14T17:15:38.848Z,53.80
2019-02-14T17:18:06.173Z,54.60
2019-02-14T17:20:33.523Z,58.90
2019-02-14T17:23:00.840Z,55.80
2019-02-14T17:25:28.735Z,55.10
2019-02-14T17:27:56.070Z,56.30
2019-02-14T17:30:23.708Z,55.10
2019-02-14T17:32:51.146Z,55.70
2019-02-14T17:35:18.620Z,56.80
2019-02-14T17:37:46.018Z,57.60
2019-02-14T17:40:13.864Z,57.50
2019-02-14T17:42:41.336Z,57.90
2019-02-14T17:45:09.357Z,59.00
2019-02-14T17:47:37.008Z,59.60
2019-02-14T17:50:04.748Z,60.60
2019-02-14T17:52:32.160Z,61.40
2019-02-14T17:54:59.803Z,62.30
2019-02-14T17:57:27.606Z,63.20
2019-02-14T17:59:55.310Z,64.40
2019-02-14T18:05:06.724Z,66.50
2019-02-14T18:07:47.071Z,67.70
2019-02-14T18:10:19.397Z,67.00
2019-02-14T18:12:47.622Z,68.40
2019-02-14T18:15:19.108Z,68.10
2019-02-14T18:17:55.614Z,68.10
2019-02-14T18:20:24.740Z,69.00
2019-02-14T18:22:55.333Z,69.60
2019-02-14T18:25:22.864Z,69.10
2019-02-14T18:27:51.961Z,68.80
2019-02-14T18:30:27.510Z,69.10
2019-02-14T18:32:55.610Z,69.00
2019-02-14T18:35:23.207Z,68.60
2019-02-14T18:37:50.801Z,68.90
2019-02-14T18:40:18.702Z,69.30
2019-02-14T18:42:46.367Z,69.60
2019-02-14T18:45:14.000Z,71.50
2019-02-14T18:47:42.095Z,72.50
2019-02-14T18:50:10.174Z,72.80
2019-02-14T18:52:37.830Z,75.80
2019-02-14T18:55:06.221Z,78.00
2019-02-14T18:57:34.334Z,79.80
2019-02-14T19:00:02.019Z,82.60
2019-02-14T19:02:29.710Z,86.40
2019-02-14T19:04:58.041Z,81.80
2019-02-14T19:07:26.061Z,85.00
2019-02-14T19:09:54.093Z,79.80
2019-02-14T19:12:21.764Z,79.80
2019-02-14T19:14:49.516Z,80.60
2019-02-14T19:17:17.942Z,78.00
2019-02-14T19:19:45.984Z,77.40
2019-02-14T19:22:13.665Z,78.00
2019-02-14T19:24:41.613Z,76.70
2019-02-14T19:27:09.627Z,75.70
2019-02-14T19:29:37.633Z,80.20
2019-02-14T19:32:05.813Z,75.70
2019-02-14T19:34:33.858Z,78.20
2019-02-14T19:37:02.476Z,76.50
2019-02-14T19:39:31.445Z,77.30
2019-02-14T19:42:00.083Z,78.20
2019-02-14T19:44:28.133Z,80.70
2019-02-14T19:46:56.150Z,80.80
2019-02-14T19:49:24.280Z,84.10
2019-02-14T19:51:52.303Z,82.60
2019-02-14T19:54:20.370Z,83.40
2019-02-14T19:56:48.353Z,82.50
2019-02-14T19:59:16.822Z,84.20
2019-02-14T20:01:44.914Z,84.70
2019-02-14T20:04:12.549Z,85.50
2019-02-14T20:06:40.525Z,85.90
2019-02-14T20:09:08.643Z,88.50
2019-02-14T20:11:37.326Z,89.50
2019-02-14T20:14:05.546Z,90.90
2019-02-14T20:16:33.186Z,91.10
2019-02-14T20:19:00.868Z,90.90
2019-02-14T20:21:28.466Z,90.70
2019-02-14T20:23:56.129Z,91.40
2019-02-14T20:26:23.763Z,90.60
2019-02-14T20:28:51.883Z,91.10
2019-02-14T20:31:19.688Z,91.80
2019-02-14T20:33:47.791Z,91.60
2019-02-14T20:36:17.291Z,92.50
2019-02-14T20:38:45.001Z,93.20
2019-02-14T20:41:13.049Z,92.30
2019-02-14T20:43:40.796Z,92.50
2019-02-14T20:46:08.862Z,92.60
2019-02-14T20:48:36.547Z,93.30
2019-02-14T20:51:04.136Z,94.50
2019-02-14T20:53:31.834Z,93.60
2019-02-14T20:55:59.977Z,94.40
2019-02-14T20:58:27.653Z,94.60
2019-02-14T21:00:55.427Z,94.80
2019-02-14T21:03:23.103Z,95.60
2019-02-14T21:05:51.017Z,96.10
2019-02-14T21:08:19.100Z,96.60
2019-02-14T21:10:46.844Z,94.60
2019-02-14T21:13:15.189Z,93.80
2019-02-14T21:15:45.599Z,94.10
2019-02-14T21:18:13.275Z,93.50
2019-02-14T21:20:41.119Z,94.10
2019-02-14T21:23:08.808Z,93.40
2019-02-14T21:25:36.513Z,96.50
2019-02-14T21:28:04.115Z,94.80
2019-02-14T21:30:35.600Z,94.50
2019-02-14T21:33:01.853Z,95.60
2019-02-14T21:35:29.570Z,96.30
2019-02-14T21:37:57.305Z,96.30
2019-02-14T21:40:24.989Z,97.00
2019-02-14T21:42:52.606Z,96.80
2019-02-14T21:45:20.342Z,96.80
2019-02-14T21:47:48.396Z,99.20
2019-02-14T21:50:16.944Z,98.60
2019-02-14T21:52:44.619Z,98.10
2019-02-14T21:55:12.482Z,98.10
2019-02-14T21:57:40.635Z,96.20
2019-02-14T22:00:11.509Z,96.40
2019-02-14T22:02:39.223Z,97.20
2019-02-14T22:05:07.486Z,97.70
2019-02-14T22:07:35.505Z,97.60
2019-02-14T22:10:03.421Z,98.00
2019-02-14T22:12:40.046Z,97.00
2019-02-14T22:15:00.674Z,97.40
2019-02-14T22:17:28.450Z,98.60
2019-02-14T22:19:56.066Z,98.60
2019-02-14T22:22:23.662Z,98.60
2019-02-14T22:24:51.559Z,98.20
2019-02-14T22:27:19.287Z,98.20
2019-02-14T22:29:46.956Z,98.20
2019-02-14T22:32:14.516Z,99.90
2019-02-14T22:34:42.124Z,98.30
2019-02-14T22:37:09.742Z,97.70
2019-02-14T22:39:37.878Z,98.10
2019-02-14T22:42:05.503Z,98.50
2019-02-14T22:44:33.105Z,97.70
2019-02-14T22:47:00.759Z,98.50
2019-02-14T22:49:29.006Z,97.40
2019-02-14T22:51:56.903Z,97.40
2019-02-14T22:54:24.824Z,97.90
2019-02-14T22:56:52.714Z,97.60
2019-02-14T22:59:20.368Z,98.20
2019-02-14T23:01:48.199Z,96.70
2019-02-14T23:04:15.783Z,98.10
2019-02-14T23:06:44.106Z,96.40
2019-02-14T23:09:11.693Z,94.90
2019-02-14T23:11:40.009Z,94.90
2019-02-14T23:14:07.602Z,96.10
2019-02-14T23:16:35.869Z,96.20
2019-02-14T23:19:03.458Z,97.00
2019-02-14T23:21:31.103Z,99.00
2019-02-14T23:23:59.052Z,98.50
2019-02-14T23:26:26.633Z,97.50
2019-02-14T23:28:54.807Z,98.50
2019-02-14T23:31:22.453Z,96.50
2019-02-14T23:33:50.445Z,96.60
2019-02-14T23:36:18.079Z,96.50
2019-02-14T23:38:45.992Z,96.10
2019-02-14T23:41:13.651Z,97.70
2019-02-14T23:43:41.873Z,98.40
2019-02-14T23:46:09.808Z,99.50
2019-02-14T23:48:39.102Z,97.90
2019-02-14T23:51:06.720Z,97.60
2019-02-14T23:53:34.310Z,97.20
2019-02-14T23:56:01.983Z,99.00
2019-02-14T23:58:30.531Z,99.90
